Malcolm Mc Kinnon Airport Brunswick US
ICAO: KSSI
IATA: SSI
Category: Medium
Scheduled Services: No

Elevation: 19 ft
TransAlt. 18000 ft.

Airport Communications:
ASOS:118.525
JACKSONVILLE CNTR:126.75
CTAF/UNICOM:123.05

KSSI Zoom In..

Runways:

(A) RW 04 length 5584 ft width 100 ft
---- / hdg 41

(B) RW 16 length 3313 ft width 75 ft
---- / hdg 159

(C) RW 22 length 5584 ft width 100 ft
---- / hdg 221

(D) RW 34 length 3313 ft width 75 ft
---- / hdg 339

Location; KSSI
Day. 23 / Time. 06.53 Zulu
* Altimeter: 29.78
* Temperature: 23° c. 73.4°f.
* Wind from: 230° Speed 07 kn.
Dewpoint: 20° c.
Visibility: 10 Statute Miles.
Clouds: Clear (automated report).

KSSI 230653Z AUTO 23007KT 10SM CLR 23/20 A2978 RMK AO2 SLP085 T02280200


Wind From 230°
Speed 07 kn.

 
 
jpsmedia.com for Web Design worldairports.se 2018   terms of use